Time;durP1;ratioP1;P1;durP2;ratioP2;P2;SDS_P1;SDS_P2;PMS_P1;PMS_P2;Temp;Humidity;BMP_temperature;BMP_pressure;BME280_temperature;BME280_humidity;BME280_pressure;Samples;Min_cycle;Max_cycle;Signal;HPM_P1;HPM_P2
2023/12/25 00:02:34;;;;;;;1.40;0.50;;;;;;;;;;103780;1295;544802;-75
2023/12/25 00:06:29;;;;;;;1.80;0.40;;;;;;;;;;103888;1291;545348;-70
2023/12/25 00:09:46;;;;;;;1.20;0.50;;;;;;;;;;103583;1295;545151;-72
2023/12/25 00:13:25;;;;;;;4.40;1.50;;;;;;;;;;103838;1289;545901;-70
2023/12/25 00:17:01;;;;;;;1.40;0.60;;;;;;;;;;103577;1292;544904;-73
2023/12/25 00:20:41;;;;;;;2.00;0.50;;;;;;;;;;103811;1292;546616;-71
2023/12/25 00:24:16;;;;;;;1.40;0.50;;;;;;;;;;103705;1291;545645;-73
2023/12/25 00:27:54;;;;;;;1.10;0.30;;;;;;;;;;103554;1293;545162;-73
2023/12/25 00:31:31;;;;;;;0.90;0.50;;;;;;;;;;103780;1292;545170;-74
2023/12/25 00:35:09;;;;;;;1.30;0.50;;;;;;;;;;103899;1288;545030;-72
2023/12/25 00:38:46;;;;;;;1.80;0.40;;;;;;;;;;103618;1305;545898;-73
2023/12/25 00:42:24;;;;;;;0.70;0.40;;;;;;;;;;103948;1292;545048;-74
2023/12/25 00:46:05;;;;;;;0.50;0.30;;;;;;;;;;103633;1294;545160;-74
2023/12/25 00:49:39;;;;;;;0.80;0.40;;;;;;;;;;103770;1294;545508;-73
2023/12/25 00:53:12;;;;;;;0.60;0.30;;;;;;;;;;103937;1289;545716;-74
2023/12/25 00:56:53;;;;;;;0.90;0.40;;;;;;;;;;103989;1289;546054;-72
2023/12/25 01:00:31;;;;;;;0.60;0.40;;;;;;;;;;103879;1288;544740;-74
2023/12/25 01:04:10;;;;;;;1.00;0.40;;;;;;;;;;104206;1285;545848;-74
2023/12/25 01:07:46;;;;;;;1.00;0.50;;;;;;;;;;103734;1292;546016;-74
2023/12/25 01:11:23;;;;;;;1.40;0.50;;;;;;;;;;103685;1291;545282;-75
2023/12/25 01:14:57;;;;;;;2.30;0.50;;;;;;;;;;103984;1291;544948;-71
2023/12/25 01:18:38;;;;;;;0.80;0.40;;;;;;;;;;104488;1286;544908;-72
2023/12/25 01:22:16;;;;;;;1.20;0.30;;;;;;;;;;103908;1294;544999;-73
2023/12/25 01:25:49;;;;;;;0.80;0.50;;;;;;;;;;104039;1289;545633;-73
2023/12/25 01:29:30;;;;;;;1.10;0.40;;;;;;;;;;103693;1297;544810;-71
2023/12/25 01:33:08;;;;;;;0.80;0.30;;;;;;;;;;103933;1289;545565;-73
2023/12/25 01:36:45;;;;;;;1.10;0.40;;;;;;;;;;103632;1292;544978;-73
2023/12/25 01:40:23;;;;;;;2.40;0.50;;;;;;;;;;103836;1294;545042;-72
2023/12/25 01:44:00;;;;;;;0.80;0.40;;;;;;;;;;103968;1289;545811;-74
2023/12/25 01:47:34;;;;;;;1.20;0.40;;;;;;;;;;103891;1292;546114;-72
2023/12/25 01:51:15;;;;;;;1.90;0.50;;;;;;;;;;103889;1295;545624;-72
2023/12/25 01:54:54;;;;;;;1.50;0.40;;;;;;;;;;104077;1289;545249;-71
2023/12/25 01:58:30;;;;;;;1.50;0.40;;;;;;;;;;103556;1292;545085;-72
2023/12/25 02:02:08;;;;;;;2.00;0.60;;;;;;;;;;103664;1299;545052;-72
2023/12/25 02:05:46;;;;;;;1.90;0.50;;;;;;;;;;103627;1292;545188;-73
2023/12/25 02:09:23;;;;;;;1.50;0.40;;;;;;;;;;103656;1292;545993;-70
2023/12/25 02:13:02;;;;;;;1.30;0.40;;;;;;;;;;104493;1286;545449;-71
2023/12/25 02:16:39;;;;;;;1.30;0.40;;;;;;;;;;103798;1291;546093;-70
2023/12/25 02:20:15;;;;;;;1.10;0.50;;;;;;;;;;104070;1294;545022;-71
2023/12/25 02:23:58;;;;;;;1.40;0.50;;;;;;;;;;103709;1292;545864;-73
2023/12/25 02:27:30;;;;;;;1.70;0.40;;;;;;;;;;103808;1289;545544;-73
2023/12/25 02:31:08;;;;;;;1.00;0.50;;;;;;;;;;103623;1298;546008;-72
2023/12/25 02:34:47;;;;;;;4.30;0.70;;;;;;;;;;103899;1292;545583;-71
2023/12/25 02:38:23;;;;;;;1.90;0.50;;;;;;;;;;103615;1292;545555;-72
2023/12/25 02:42:00;;;;;;;1.10;0.50;;;;;;;;;;103516;1298;544889;-73
2023/12/25 02:45:37;;;;;;;2.20;0.40;;;;;;;;;;103686;1295;545432;-72
2023/12/25 02:49:14;;;;;;;1.30;0.50;;;;;;;;;;103474;1294;545948;-72
2023/12/25 02:52:54;;;;;;;2.00;0.70;;;;;;;;;;103692;1292;545224;-71
2023/12/25 02:56:30;;;;;;;1.80;0.40;;;;;;;;;;103631;1292;546001;-73
2023/12/25 03:00:07;;;;;;;1.30;0.50;;;;;;;;;;103535;1295;545047;-71
2023/12/25 03:03:45;;;;;;;2.70;0.50;;;;;;;;;;103745;1292;544761;-73
2023/12/25 03:07:28;;;;;;;0.90;0.40;;;;;;;;;;103366;1292;545437;-73
2023/12/25 03:11:00;;;;;;;1.50;0.50;;;;;;;;;;103539;1297;544943;-73
2023/12/25 03:14:37;;;;;;;0.90;0.50;;;;;;;;;;103795;1289;546525;-74
2023/12/25 03:18:14;;;;;;;1.40;0.40;;;;;;;;;;103700;1291;545256;-74
2023/12/25 03:21:52;;;;;;;4.20;0.50;;;;;;;;;;103449;1303;545369;-73
2023/12/25 03:25:30;;;;;;;2.50;0.60;;;;;;;;;;103551;1291;544770;-71
2023/12/25 03:29:07;;;;;;;2.10;0.60;;;;;;;;;;103534;1294;545776;-72
2023/12/25 03:32:44;;;;;;;2.20;0.40;;;;;;;;;;103890;1289;545356;-72
2023/12/25 03:36:22;;;;;;;1.30;0.60;;;;;;;;;;103522;1292;545952;-72
2023/12/25 03:39:59;;;;;;;2.30;0.70;;;;;;;;;;103645;1293;546335;-71
2023/12/25 03:43:37;;;;;;;1.10;0.50;;;;;;;;;;104057;1292;544783;-72
2023/12/25 03:47:20;;;;;;;1.60;0.50;;;;;;;;;;103430;1295;545818;-74
2023/12/25 03:50:51;;;;;;;2.30;0.50;;;;;;;;;;103700;1292;545915;-74
2023/12/25 03:54:25;;;;;;;2.10;0.50;;;;;;;;;;103909;1292;546128;-72
2023/12/25 03:58:07;;;;;;;0.70;0.40;;;;;;;;;;103599;1292;544870;-72
2023/12/25 04:01:44;;;;;;;1.30;0.50;;;;;;;;;;103596;1291;544989;-73
2023/12/25 04:05:22;;;;;;;2.10;0.60;;;;;;;;;;103879;1289;545452;-72
2023/12/25 04:08:59;;;;;;;1.60;0.50;;;;;;;;;;103518;1293;545523;-73
2023/12/25 04:12:36;;;;;;;1.40;0.50;;;;;;;;;;103623;1292;545120;-72
2023/12/25 04:16:18;;;;;;;1.60;0.50;;;;;;;;;;103556;1292;545160;-74
2023/12/25 04:19:51;;;;;;;1.70;0.50;;;;;;;;;;103555;1291;544809;-71
2023/12/25 04:23:28;;;;;;;1.30;0.50;;;;;;;;;;103716;1289;545044;-73
2023/12/25 04:27:06;;;;;;;1.90;0.40;;;;;;;;;;103687;1292;545692;-72
2023/12/25 04:30:40;;;;;;;1.80;0.50;;;;;;;;;;103833;1289;545094;-71
2023/12/25 04:34:21;;;;;;;2.30;0.60;;;;;;;;;;103823;1290;545546;-71
2023/12/25 04:37:55;;;;;;;1.90;0.40;;;;;;;;;;103784;1292;545194;-72
2023/12/25 04:41:36;;;;;;;1.50;0.40;;;;;;;;;;103491;1294;546241;-72
2023/12/25 04:45:14;;;;;;;1.20;0.40;;;;;;;;;;104149;1289;545729;-72
2023/12/25 04:48:51;;;;;;;2.00;0.40;;;;;;;;;;103581;1296;544987;-72
2023/12/25 04:52:29;;;;;;;1.30;0.50;;;;;;;;;;103803;1294;544969;-71
2023/12/25 04:56:10;;;;;;;1.50;0.40;;;;;;;;;;103795;1289;544970;-72
2023/12/25 04:59:43;;;;;;;1.70;0.60;;;;;;;;;;103512;1294;545653;-69
2023/12/25 05:03:21;;;;;;;1.60;0.40;;;;;;;;;;103557;1295;545058;-72
2023/12/25 05:06:58;;;;;;;1.70;0.50;;;;;;;;;;103711;1289;545349;-72
2023/12/25 05:10:36;;;;;;;2.00;0.50;;;;;;;;;;105667;1292;544909;-74
2023/12/25 05:14:09;;;;;;;2.00;0.60;;;;;;;;;;103993;1288;544822;-72
2023/12/25 05:17:51;;;;;;;1.30;0.50;;;;;;;;;;103608;1292;545146;-74
2023/12/25 05:21:28;;;;;;;1.50;0.40;;;;;;;;;;104067;1292;545482;-71
2023/12/25 05:25:06;;;;;;;2.00;0.50;;;;;;;;;;103632;1292;545102;-72
2023/12/25 05:28:43;;;;;;;1.90;0.50;;;;;;;;;;104070;1286;545536;-71
2023/12/25 05:32:21;;;;;;;1.80;0.50;;;;;;;;;;103846;1290;545887;-76
2023/12/25 05:35:54;;;;;;;1.60;0.40;;;;;;;;;;103790;1292;545679;-73
2023/12/25 05:39:36;;;;;;;1.50;0.50;;;;;;;;;;104102;1286;546068;-72
2023/12/25 05:43:13;;;;;;;1.40;0.50;;;;;;;;;;103938;1291;545072;-74
2023/12/25 05:46:51;;;;;;;1.20;0.40;;;;;;;;;;104034;1290;544942;-74
2023/12/25 05:50:24;;;;;;;1.60;0.50;;;;;;;;;;104196;1285;544936;-73
2023/12/25 05:54:06;;;;;;;1.10;0.40;;;;;;;;;;103679;1297;544711;-73
2023/12/25 05:57:43;;;;;;;1.40;0.40;;;;;;;;;;103808;1292;545268;-74
2023/12/25 06:01:21;;;;;;;1.50;0.50;;;;;;;;;;103631;1298;547077;-72
2023/12/25 06:04:57;;;;;;;1.10;0.50;;;;;;;;;;103924;1289;545347;-72
2023/12/25 06:08:35;;;;;;;1.30;0.50;;;;;;;;;;103893;1289;545815;-72
2023/12/25 06:12:13;;;;;;;2.20;0.70;;;;;;;;;;103731;1289;544997;-72
2023/12/25 06:15:50;;;;;;;1.30;0.60;;;;;;;;;;103425;1297;545140;-74
2023/12/25 06:19:27;;;;;;;1.50;0.50;;;;;;;;;;103808;1292;545301;-73
2023/12/25 06:23:05;;;;;;;2.30;0.80;;;;;;;;;;103486;1291;545598;-72
2023/12/25 06:26:42;;;;;;;3.00;1.20;;;;;;;;;;103626;1292;545242;-72
2023/12/25 06:30:20;;;;;;;1.30;0.50;;;;;;;;;;103885;1289;546188;-71
2023/12/25 06:33:57;;;;;;;1.80;0.70;;;;;;;;;;103695;1293;546473;-74
2023/12/25 06:37:34;;;;;;;2.40;0.70;;;;;;;;;;103792;1289;544951;-72
2023/12/25 06:41:12;;;;;;;1.20;0.50;;;;;;;;;;103713;1292;545270;-73
2023/12/25 06:44:50;;;;;;;1.20;0.60;;;;;;;;;;103600;1292;545674;-73
2023/12/25 06:48:28;;;;;;;2.10;0.50;;;;;;;;;;103929;1296;544934;-71
2023/12/25 06:52:06;;;;;;;1.60;0.60;;;;;;;;;;103587;1292;545060;-74
2023/12/25 06:55:42;;;;;;;1.60;0.50;;;;;;;;;;103417;1307;546210;-71
2023/12/25 06:59:20;;;;;;;1.30;0.60;;;;;;;;;;103853;1292;545845;-72
2023/12/25 07:02:57;;;;;;;1.70;0.60;;;;;;;;;;104199;1290;544884;-71
2023/12/25 07:06:35;;;;;;;1.40;0.80;;;;;;;;;;103622;1305;545013;-71
2023/12/25 07:10:12;;;;;;;1.40;0.60;;;;;;;;;;104013;1289;544810;-72
2023/12/25 07:13:50;;;;;;;2.10;0.60;;;;;;;;;;103551;1292;546058;-73
2023/12/25 07:17:27;;;;;;;1.10;0.40;;;;;;;;;;103539;1297;545052;-71
2023/12/25 07:21:05;;;;;;;1.20;0.50;;;;;;;;;;103864;1288;544873;-72
2023/12/25 07:24:42;;;;;;;0.90;0.50;;;;;;;;;;104546;1281;544833;-72
2023/12/25 07:28:19;;;;;;;2.30;0.60;;;;;;;;;;103638;1292;545207;-74
2023/12/25 07:31:57;;;;;;;2.00;0.90;;;;;;;;;;103679;1292;545056;-74
2023/12/25 07:35:34;;;;;;;2.30;0.70;;;;;;;;;;103574;1292;544903;-72
2023/12/25 07:39:14;;;;;;;2.00;0.60;;;;;;;;;;103859;1291;545854;-73
2023/12/25 07:42:49;;;;;;;2.50;0.60;;;;;;;;;;103550;1292;545823;-72
2023/12/25 07:46:26;;;;;;;1.30;0.50;;;;;;;;;;103476;1295;545800;-72
2023/12/25 07:50:04;;;;;;;2.50;0.70;;;;;;;;;;103784;1289;545355;-71
2023/12/25 07:53:42;;;;;;;1.10;0.50;;;;;;;;;;104006;1286;545060;-73
2023/12/25 07:57:20;;;;;;;1.80;0.70;;;;;;;;;;103604;1303;545550;-73
2023/12/25 08:00:56;;;;;;;3.00;0.90;;;;;;;;;;103805;1290;544847;-73
2023/12/25 08:04:34;;;;;;;2.10;0.60;;;;;;;;;;103578;1292;544874;-73
2023/12/25 08:08:12;;;;;;;2.90;0.80;;;;;;;;;;104171;1300;545871;-73
2023/12/25 08:11:49;;;;;;;2.00;0.90;;;;;;;;;;104009;1286;545209;-75
2023/12/25 08:15:26;;;;;;;1.30;0.70;;;;;;;;;;103771;1289;545006;-72
2023/12/25 08:19:04;;;;;;;2.30;0.80;;;;;;;;;;103774;1292;545037;-73
2023/12/25 08:22:42;;;;;;;2.80;0.90;;;;;;;;;;103497;1292;546030;-72
2023/12/25 08:26:19;;;;;;;1.40;0.60;;;;;;;;;;103704;1292;545296;-71
2023/12/25 08:29:56;;;;;;;2.30;0.80;;;;;;;;;;103881;1291;545035;-73
2023/12/25 08:33:34;;;;;;;1.90;0.70;;;;;;;;;;103823;1289;545485;-73
2023/12/25 08:37:08;;;;;;;1.30;0.60;;;;;;;;;;103855;1289;545564;-72
2023/12/25 08:40:49;;;;;;;1.50;0.70;;;;;;;;;;103876;1292;545052;-72
2023/12/25 08:44:32;;;;;;;1.50;0.70;;;;;;;;;;103684;1291;545036;-71
2023/12/25 08:48:04;;;;;;;2.00;0.80;;;;;;;;;;104075;1299;545479;-73
2023/12/25 08:51:41;;;;;;;1.90;0.80;;;;;;;;;;103876;1289;545184;-72
2023/12/25 08:55:18;;;;;;;1.80;0.80;;;;;;;;;;104036;1286;544807;-73
2023/12/25 08:58:58;;;;;;;1.80;0.70;;;;;;;;;;103565;1301;545344;-71
2023/12/25 09:02:34;;;;;;;2.10;0.70;;;;;;;;;;103841;1289;545058;-71
2023/12/25 09:06:12;;;;;;;2.20;0.90;;;;;;;;;;103481;1296;545777;-72
2023/12/25 09:09:49;;;;;;;2.70;0.60;;;;;;;;;;103857;1294;545519;-70
2023/12/25 09:13:32;;;;;;;2.30;0.70;;;;;;;;;;103932;1291;545428;-71
2023/12/25 09:17:03;;;;;;;1.60;0.60;;;;;;;;;;103698;1291;546113;-72
2023/12/25 09:20:41;;;;;;;1.20;0.60;;;;;;;;;;103823;1289;545031;-72
2023/12/25 09:24:18;;;;;;;1.50;0.60;;;;;;;;;;103605;1292;544971;-72
2023/12/25 09:27:56;;;;;;;2.30;0.70;;;;;;;;;;103593;1292;545436;-72
2023/12/25 09:31:33;;;;;;;1.50;0.50;;;;;;;;;;103829;1289;545112;-73
2023/12/25 09:35:12;;;;;;;8.20;4.00;;;;;;;;;;103694;1292;545236;-71
2023/12/25 09:38:49;;;;;;;5.10;2.10;;;;;;;;;;103502;1292;545584;-71
2023/12/25 09:42:26;;;;;;;6.50;2.80;;;;;;;;;;104066;1296;545761;-72
2023/12/25 09:46:03;;;;;;;18.60;13.70;;;;;;;;;;103600;1292;545257;-71
2023/12/25 09:49:42;;;;;;;6.60;2.40;;;;;;;;;;103741;1300;545938;-70
2023/12/25 09:53:18;;;;;;;8.20;3.70;;;;;;;;;;104351;1283;545211;-73
2023/12/25 09:56:57;;;;;;;7.30;3.50;;;;;;;;;;103496;1295;546076;-70
2023/12/25 10:00:33;;;;;;;7.20;2.80;;;;;;;;;;103654;1292;545244;-71
2023/12/25 10:04:11;;;;;;;8.00;2.70;;;;;;;;;;103827;1291;544927;-70
2023/12/25 10:07:48;;;;;;;7.70;2.20;;;;;;;;;;103956;1288;545136;-70
2023/12/25 10:11:25;;;;;;;10.60;3.80;;;;;;;;;;104166;1286;545213;-70
2023/12/25 10:15:05;;;;;;;13.50;4.40;;;;;;;;;;103437;1294;545558;-71
2023/12/25 10:18:40;;;;;;;13.20;4.60;;;;;;;;;;103466;1294;545588;-68
2023/12/25 10:22:28;;;;;;;8.80;2.70;;;;;;;;;;104078;1284;545073;-70
2023/12/25 10:25:56;;;;;;;9.60;3.80;;;;;;;;;;103499;1295;545080;-71
2023/12/25 10:29:33;;;;;;;6.80;2.50;;;;;;;;;;103710;1305;544814;-70
2023/12/25 10:33:13;;;;;;;7.40;2.90;;;;;;;;;;103852;1289;545067;-71
2023/12/25 10:36:51;;;;;;;8.40;3.60;;;;;;;;;;103545;1295;545335;-71
2023/12/25 10:40:25;;;;;;;4.80;1.70;;;;;;;;;;103542;1294;545705;-70
2023/12/25 10:44:05;;;;;;;6.30;2.30;;;;;;;;;;103516;1294;545033;-71
2023/12/25 10:47:42;;;;;;;3.90;1.10;;;;;;;;;;103593;1297;545066;-71
2023/12/25 10:51:33;;;;;;;4.30;1.30;;;;;;;;;;103819;1289;545176;-71
2023/12/25 10:54:57;;;;;;;7.60;3.10;;;;;;;;;;104054;1289;545140;-72
2023/12/25 10:58:35;;;;;;;8.30;3.60;;;;;;;;;;103534;1295;545265;-71
2023/12/25 11:02:11;;;;;;;8.00;3.80;;;;;;;;;;103803;1289;544915;-71
2023/12/25 11:05:52;;;;;;;7.80;2.70;;;;;;;;;;103685;1305;545011;-71
2023/12/25 11:09:29;;;;;;;8.90;3.60;;;;;;;;;;103959;1288;545227;-71
2023/12/25 11:13:07;;;;;;;12.30;4.70;;;;;;;;;;103745;1292;545490;-71
2023/12/25 11:16:44;;;;;;;7.40;2.40;;;;;;;;;;103589;1295;545958;-72
2023/12/25 11:20:21;;;;;;;7.20;2.90;;;;;;;;;;103699;1292;544901;-72
2023/12/25 11:24:05;;;;;;;7.20;2.80;;;;;;;;;;103719;1289;545114;-71
2023/12/25 11:27:36;;;;;;;4.70;1.30;;;;;;;;;;103686;1291;544879;-70
2023/12/25 11:31:20;;;;;;;5.20;1.60;;;;;;;;;;104555;1283;544845;-72
2023/12/25 11:34:51;;;;;;;6.20;2.10;;;;;;;;;;104082;1294;545078;-71
2023/12/25 11:38:29;;;;;;;5.70;2.10;;;;;;;;;;103811;1295;545084;-72
2023/12/25 11:42:06;;;;;;;5.40;2.30;;;;;;;;;;103576;1295;545160;-74
2023/12/25 11:45:43;;;;;;;3.90;1.30;;;;;;;;;;104092;1291;545070;-70
2023/12/25 11:49:21;;;;;;;4.20;1.10;;;;;;;;;;103759;1295;545118;-71
2023/12/25 11:52:58;;;;;;;3.40;1.10;;;;;;;;;;103768;1292;545457;-71
2023/12/25 11:56:37;;;;;;;4.00;1.40;;;;;;;;;;103759;1294;545269;-71
2023/12/25 12:00:20;;;;;;;3.90;1.20;;;;;;;;;;104218;1289;545384;-71
2023/12/25 12:03:51;;;;;;;13.30;6.70;;;;;;;;;;103880;1289;544849;-70
2023/12/25 12:07:28;;;;;;;13.70;10.10;;;;;;;;;;103604;1295;546217;-71
2023/12/25 12:11:06;;;;;;;30.60;27.80;;;;;;;;;;103792;1290;546105;-71
2023/12/25 12:14:43;;;;;;;17.20;15.30;;;;;;;;;;103930;1289;546239;-70
2023/12/25 12:18:21;;;;;;;9.00;5.40;;;;;;;;;;103568;1298;545200;-70
2023/12/25 12:21:59;;;;;;;13.30;4.50;;;;;;;;;;103994;1288;544808;-70
2023/12/25 12:25:32;;;;;;;15.90;6.40;;;;;;;;;;103854;1289;544902;-72
2023/12/25 12:29:12;;;;;;;11.40;6.20;;;;;;;;;;103848;1292;545420;-70
2023/12/25 12:33:10;;;;;;;8.00;3.50;;;;;;;;;;103929;1291;548112;-70
2023/12/25 12:36:28;;;;;;;9.40;5.20;;;;;;;;;;103602;1295;544912;-70
2023/12/25 12:40:06;;;;;;;15.00;12.60;;;;;;;;;;103837;1289;545604;-70
2023/12/25 12:43:43;;;;;;;50.70;33.10;;;;;;;;;;103792;1295;545073;-70
2023/12/25 12:47:21;;;;;;;67.50;30.20;;;;;;;;;;103590;1294;545501;-70
2023/12/25 12:50:58;;;;;;;27.50;10.80;;;;;;;;;;103940;1296;544827;-70
2023/12/25 12:54:35;;;;;;;17.30;9.20;;;;;;;;;;103616;1292;546132;-70
2023/12/25 12:58:13;;;;;;;10.00;5.10;;;;;;;;;;103530;1295;546012;-70
2023/12/25 13:01:51;;;;;;;13.00;5.90;;;;;;;;;;104220;1287;544838;-70
2023/12/25 13:05:28;;;;;;;8.70;3.70;;;;;;;;;;103491;1293;546081;-70
2023/12/25 13:09:05;;;;;;;6.70;2.50;;;;;;;;;;103581;1295;545143;-70
2023/12/25 13:12:42;;;;;;;9.20;3.80;;;;;;;;;;103740;1293;545395;-70
2023/12/25 13:16:20;;;;;;;14.40;7.40;;;;;;;;;;103924;1288;545119;-70
2023/12/25 13:19:57;;;;;;;12.10;5.10;;;;;;;;;;103943;1289;545098;-70
2023/12/25 13:23:35;;;;;;;4.30;1.40;;;;;;;;;;103882;1289;545675;-70
2023/12/25 13:27:08;;;;;;;12.10;10.90;;;;;;;;;;103769;1296;544857;-70
2023/12/25 13:30:50;;;;;;;8.00;4.50;;;;;;;;;;104177;1286;544833;-70
2023/12/25 13:34:27;;;;;;;17.90;10.00;;;;;;;;;;103586;1291;545976;-70
2023/12/25 13:38:05;;;;;;;19.10;8.60;;;;;;;;;;103610;1295;546037;-70
2023/12/25 13:41:38;;;;;;;10.70;4.30;;;;;;;;;;103901;1289;545644;-70
2023/12/25 13:45:20;;;;;;;10.20;4.70;;;;;;;;;;103492;1295;545999;-72
2023/12/25 13:48:57;;;;;;;16.50;7.90;;;;;;;;;;103781;1295;544940;-70
2023/12/25 13:52:35;;;;;;;21.20;10.70;;;;;;;;;;103591;1292;544846;-70
2023/12/25 13:56:12;;;;;;;15.70;7.60;;;;;;;;;;103665;1292;545406;-69
2023/12/25 13:59:50;;;;;;;28.40;14.20;;;;;;;;;;103804;1293;544821;-70
2023/12/25 14:03:27;;;;;;;77.10;30.90;;;;;;;;;;103653;1289;545097;-70
2023/12/25 14:07:06;;;;;;;24.10;8.00;;;;;;;;;;103571;1291;545268;-69
2023/12/25 14:10:42;;;;;;;5.00;1.60;;;;;;;;;;103687;1299;545234;-70
2023/12/25 14:14:19;;;;;;;4.50;1.70;;;;;;;;;;103763;1288;544883;-70
2023/12/25 14:17:57;;;;;;;5.60;2.40;;;;;;;;;;104080;1292;545700;-69
2023/12/25 14:21:34;;;;;;;7.10;2.90;;;;;;;;;;104497;1286;545542;-72
2023/12/25 14:25:15;;;;;;;12.20;5.40;;;;;;;;;;103880;1288;545481;-72
2023/12/25 14:28:49;;;;;;;8.20;3.30;;;;;;;;;;103519;1293;545207;-72
2023/12/25 14:32:27;;;;;;;6.90;2.70;;;;;;;;;;103985;1291;545343;-70
2023/12/25 14:36:04;;;;;;;8.00;2.90;;;;;;;;;;104151;1286;545312;-71
2023/12/25 14:39:41;;;;;;;7.30;2.50;;;;;;;;;;103814;1291;545475;-69
2023/12/25 14:43:19;;;;;;;12.40;8.10;;;;;;;;;;103827;1292;545233;-70
2023/12/25 14:46:57;;;;;;;11.10;6.80;;;;;;;;;;103706;1291;545175;-69
2023/12/25 14:50:37;;;;;;;10.20;4.50;;;;;;;;;;103874;1289;545559;-71
2023/12/25 14:54:14;;;;;;;17.10;11.40;;;;;;;;;;103852;1292;544835;-70
2023/12/25 14:57:45;;;;;;;15.90;9.40;;;;;;;;;;103989;1292;546068;-70
2023/12/25 15:01:26;;;;;;;15.10;9.20;;;;;;;;;;103768;1289;546599;-70
2023/12/25 15:05:04;;;;;;;6.10;2.70;;;;;;;;;;103495;1295;545393;-71
2023/12/25 15:08:41;;;;;;;5.30;2.50;;;;;;;;;;103700;1295;545445;-73
2023/12/25 15:12:15;;;;;;;8.60;5.70;;;;;;;;;;103972;1290;544802;-72
2023/12/25 15:15:56;;;;;;;14.30;8.10;;;;;;;;;;104128;1286;544855;-70
2023/12/25 15:19:36;;;;;;;20.30;12.20;;;;;;;;;;103581;1293;544860;-70
2023/12/25 15:23:11;;;;;;;13.00;7.80;;;;;;;;;;103695;1292;545253;-70
2023/12/25 15:26:45;;;;;;;9.20;3.50;;;;;;;;;;104388;1286;545117;-69
2023/12/25 15:30:26;;;;;;;10.10;2.90;;;;;;;;;;103862;1291;545606;-69
2023/12/25 15:34:03;;;;;;;8.50;2.70;;;;;;;;;;103597;1294;544862;-70
2023/12/25 15:37:41;;;;;;;6.50;2.40;;;;;;;;;;103737;1295;544823;-71
2023/12/25 15:41:18;;;;;;;10.10;4.40;;;;;;;;;;103885;1289;545507;-70
2023/12/25 15:44:55;;;;;;;24.30;11.00;;;;;;;;;;103660;1292;545079;-72
2023/12/25 15:48:36;;;;;;;19.30;7.00;;;;;;;;;;104238;1288;545244;-70
2023/12/25 15:52:09;;;;;;;10.70;3.20;;;;;;;;;;104672;1282;544837;-71
2023/12/25 15:55:49;;;;;;;6.80;2.40;;;;;;;;;;103759;1292;546075;-70
2023/12/25 15:59:27;;;;;;;5.50;2.20;;;;;;;;;;103894;1289;544961;-72
2023/12/25 16:03:00;;;;;;;5.40;1.70;;;;;;;;;;103896;1291;544849;-70
2023/12/25 16:06:41;;;;;;;6.70;3.30;;;;;;;;;;104165;1289;545536;-70
2023/12/25 16:10:19;;;;;;;4.90;1.70;;;;;;;;;;103789;1289;544852;-69
2023/12/25 16:13:56;;;;;;;7.50;2.30;;;;;;;;;;103624;1298;545120;-71
2023/12/25 16:17:34;;;;;;;5.30;2.00;;;;;;;;;;103773;1289;545144;-71
2023/12/25 16:21:19;;;;;;;7.30;3.10;;;;;;;;;;103930;1289;545811;-72
2023/12/25 16:24:49;;;;;;;7.50;2.90;;;;;;;;;;104196;1289;544922;-70
2023/12/25 16:28:26;;;;;;;8.20;3.50;;;;;;;;;;103549;1292;545185;-71
2023/12/25 16:32:04;;;;;;;13.70;7.10;;;;;;;;;;103588;1295;545126;-71
2023/12/25 16:35:41;;;;;;;6.90;2.50;;;;;;;;;;103740;1292;545068;-73
2023/12/25 16:39:24;;;;;;;6.90;2.10;;;;;;;;;;104007;1286;544821;-71
2023/12/25 16:42:56;;;;;;;12.60;5.00;;;;;;;;;;103609;1294;544809;-71
2023/12/25 16:46:33;;;;;;;24.80;10.00;;;;;;;;;;104017;1286;546069;-68
2023/12/25 16:50:13;;;;;;;23.10;9.40;;;;;;;;;;103513;1292;545304;-70
2023/12/25 16:53:49;;;;;;;9.10;4.10;;;;;;;;;;103641;1291;545679;-71
2023/12/25 16:57:26;;;;;;;7.80;3.20;;;;;;;;;;104178;1292;544871;-70
2023/12/25 17:01:04;;;;;;;9.50;4.30;;;;;;;;;;103681;1291;546185;-70
2023/12/25 17:04:46;;;;;;;7.10;2.50;;;;;;;;;;103626;1292;545104;-71
2023/12/25 17:08:18;;;;;;;33.40;18.40;;;;;;;;;;103924;1288;545216;-71
2023/12/25 17:11:56;;;;;;;47.10;25.20;;;;;;;;;;103629;1295;544869;-70
2023/12/25 17:15:33;;;;;;;24.40;12.80;;;;;;;;;;103798;1292;544896;-71
2023/12/25 17:19:12;;;;;;;21.70;12.10;;;;;;;;;;103691;1293;545581;-73
2023/12/25 17:22:49;;;;;;;10.90;5.50;;;;;;;;;;103864;1289;545497;-73
2023/12/25 17:26:26;;;;;;;10.10;4.70;;;;;;;;;;103658;1298;545465;-72
2023/12/25 17:30:03;;;;;;;12.10;6.70;;;;;;;;;;103744;1289;544872;-72
2023/12/25 17:34:00;;;;;;;24.30;11.40;;;;;;;;;;103622;1292;545275;-73
2023/12/25 17:37:18;;;;;;;52.10;28.70;;;;;;;;;;103603;1292;545076;-71
2023/12/25 17:40:55;;;;;;;28.40;16.00;;;;;;;;;;103805;1292;545755;-71
2023/12/25 17:44:29;;;;;;;19.40;9.90;;;;;;;;;;104693;1283;545914;-71
2023/12/25 17:48:22;;;;;;;48.30;23.80;;;;;;;;;;103487;1293;545923;-71
2023/12/25 17:51:48;;;;;;;18.30;8.20;;;;;;;;;;104209;1290;545919;-73
2023/12/25 17:55:31;;;;;;;13.30;5.80;;;;;;;;;;103949;1286;545389;-74
2023/12/25 17:59:03;;;;;;;18.20;7.80;;;;;;;;;;103615;1292;544909;-74
2023/12/25 18:02:46;;;;;;;21.10;9.10;;;;;;;;;;103922;1295;544769;-73
2023/12/25 18:06:14;;;;;;;10.00;4.20;;;;;;;;;;103877;1299;545214;-70
2023/12/25 18:10:01;;;;;;;9.30;4.00;;;;;;;;;;103440;1291;545031;-72
2023/12/25 18:13:33;;;;;;;8.40;3.50;;;;;;;;;;103728;1292;545332;-71
2023/12/25 18:17:10;;;;;;;28.80;14.80;;;;;;;;;;103633;1292;545255;-72
2023/12/25 18:20:48;;;;;;;24.30;10.10;;;;;;;;;;103837;1289;546676;-71
2023/12/25 18:25:00;;;;;;;21.10;9.60;;;;;;;;;;103730;1292;549430;-71
2023/12/25 18:28:03;;;;;;;39.50;17.70;;;;;;;;;;103634;1292;546545;-71
2023/12/25 18:31:59;;;;;;;42.30;19.60;;;;;;;;;;103530;1294;545659;-71
2023/12/25 18:35:17;;;;;;;27.90;14.50;;;;;;;;;;103832;1289;545232;-72
2023/12/25 18:38:55;;;;;;;23.90;11.70;;;;;;;;;;103716;1291;545522;-70
2023/12/25 18:42:32;;;;;;;19.00;10.00;;;;;;;;;;103708;1292;544830;-70
2023/12/25 18:46:10;;;;;;;14.40;6.70;;;;;;;;;;103761;1292;545659;-71
2023/12/25 18:49:47;;;;;;;8.30;3.30;;;;;;;;;;103745;1292;545166;-71
2023/12/25 18:53:25;;;;;;;15.80;7.60;;;;;;;;;;103587;1298;545283;-70
2023/12/25 18:57:02;;;;;;;12.10;6.20;;;;;;;;;;103618;1292;545244;-70
2023/12/25 19:00:39;;;;;;;8.70;4.10;;;;;;;;;;103833;1288;545448;-71
2023/12/25 19:04:17;;;;;;;5.80;2.40;;;;;;;;;;103803;1291;546080;-75
2023/12/25 19:07:55;;;;;;;5.90;2.10;;;;;;;;;;103786;1290;544758;-71
2023/12/25 19:11:39;;;;;;;6.10;2.00;;;;;;;;;;104123;1286;545387;-72
2023/12/25 19:15:10;;;;;;;19.00;9.40;;;;;;;;;;103908;1296;545328;-70
2023/12/25 19:18:47;;;;;;;15.90;8.30;;;;;;;;;;104127;1286;545846;-70
2023/12/25 19:22:25;;;;;;;8.70;4.00;;;;;;;;;;104271;1288;545688;-72
2023/12/25 19:26:02;;;;;;;7.10;2.70;;;;;;;;;;104210;1286;545005;-71
2023/12/25 19:29:42;;;;;;;4.80;1.80;;;;;;;;;;103633;1295;545471;-72
2023/12/25 19:33:17;;;;;;;5.00;2.00;;;;;;;;;;103630;1294;545119;-71
2023/12/25 19:36:54;;;;;;;4.70;1.80;;;;;;;;;;103866;1290;545611;-70
2023/12/25 19:40:32;;;;;;;4.50;1.90;;;;;;;;;;103623;1292;546553;-73
2023/12/25 19:44:09;;;;;;;4.90;1.30;;;;;;;;;;103720;1295;544894;-71
2023/12/25 19:47:47;;;;;;;3.10;1.20;;;;;;;;;;103841;1289;545004;-71
2023/12/25 19:51:24;;;;;;;3.60;1.30;;;;;;;;;;103635;1291;545915;-73
2023/12/25 19:55:03;;;;;;;3.10;0.90;;;;;;;;;;103626;1292;544901;-70
2023/12/25 19:58:39;;;;;;;3.60;1.00;;;;;;;;;;103892;1289;545470;-72
2023/12/25 20:02:17;;;;;;;2.60;0.90;;;;;;;;;;103727;1295;546028;-73
2023/12/25 20:05:54;;;;;;;4.90;1.30;;;;;;;;;;103841;1289;545688;-72
2023/12/25 20:09:31;;;;;;;9.20;5.00;;;;;;;;;;103848;1293;545005;-70
2023/12/25 20:13:09;;;;;;;26.90;11.50;;;;;;;;;;103507;1306;544975;-70
2023/12/25 20:16:46;;;;;;;18.50;8.20;;;;;;;;;;103810;1295;545019;-71
2023/12/25 20:20:24;;;;;;;12.50;6.50;;;;;;;;;;103465;1293;545120;-70
2023/12/25 20:24:01;;;;;;;11.10;4.60;;;;;;;;;;103808;1298;544956;-70
2023/12/25 20:27:39;;;;;;;27.40;14.30;;;;;;;;;;104252;1285;545049;-72
2023/12/25 20:31:12;;;;;;;19.10;10.20;;;;;;;;;;103800;1292;544847;-71
2023/12/25 20:34:50;;;;;;;15.20;6.60;;;;;;;;;;103844;1292;545044;-70
2023/12/25 20:38:31;;;;;;;7.30;2.70;;;;;;;;;;103439;1298;545179;-71
2023/12/25 20:42:09;;;;;;;16.10;7.10;;;;;;;;;;103568;1298;545118;-71
2023/12/25 20:45:46;;;;;;;10.60;3.70;;;;;;;;;;104239;1289;544994;-70
2023/12/25 20:49:26;;;;;;;8.70;3.30;;;;;;;;;;103625;1291;545082;-70
2023/12/25 20:53:00;;;;;;;8.70;3.20;;;;;;;;;;103595;1292;544968;-70
2023/12/25 20:56:39;;;;;;;9.00;4.10;;;;;;;;;;103761;1288;546168;-72
2023/12/25 21:00:16;;;;;;;6.70;2.50;;;;;;;;;;103451;1294;545016;-70